sensor_id;sensor_type;location;lat;lon;timestamp;pressure;altitude;pressure_sealevel;temperature;humidity
81354;BME280;70810;52.038;8.524;2024-03-02T00:01:50;99027.50;;;6.21;76.83
81354;BME280;70810;52.038;8.524;2024-03-02T00:04:18;99031.69;;;6.26;77.95
81354;BME280;70810;52.038;8.524;2024-03-02T00:06:46;99028.75;;;6.31;77.26
81354;BME280;70810;52.038;8.524;2024-03-02T00:09:14;99031.19;;;6.35;77.38
81354;BME280;70810;52.038;8.524;2024-03-02T00:11:45;99029.66;;;6.31;77.47
81354;BME280;70810;52.038;8.524;2024-03-02T00:14:14;99034.66;;;6.20;77.34
81354;BME280;70810;52.038;8.524;2024-03-02T00:16:42;99030.97;;;6.23;77.58
81354;BME280;70810;52.038;8.524;2024-03-02T00:19:10;99032.63;;;6.08;78.97
81354;BME280;70810;52.038;8.524;2024-03-02T00:21:37;99029.78;;;6.11;77.83
81354;BME280;70810;52.038;8.524;2024-03-02T00:24:21;98992.31;;;5.79;79.14
81354;BME280;70810;52.038;8.524;2024-03-02T00:26:56;99029.63;;;5.96;79.41
81354;BME280;70810;52.038;8.524;2024-03-02T00:29:24;99030.59;;;5.94;78.99
81354;BME280;70810;52.038;8.524;2024-03-02T00:31:53;99024.56;;;5.90;79.67
81354;BME280;70810;52.038;8.524;2024-03-02T00:34:22;99030.19;;;6.03;78.37
81354;BME280;70810;52.038;8.524;2024-03-02T00:36:49;99017.78;;;6.02;78.95
81354;BME280;70810;52.038;8.524;2024-03-02T00:39:18;99016.94;;;6.02;78.73
81354;BME280;70810;52.038;8.524;2024-03-02T00:41:49;99016.34;;;5.95;78.91
81354;BME280;70810;52.038;8.524;2024-03-02T00:44:18;99019.06;;;6.12;79.53
81354;BME280;70810;52.038;8.524;2024-03-02T00:46:47;99012.19;;;6.08;78.76
81354;BME280;70810;52.038;8.524;2024-03-02T00:49:20;99010.38;;;6.09;79.51
81354;BME280;70810;52.038;8.524;2024-03-02T00:51:47;98998.94;;;6.07;79.16
81354;BME280;70810;52.038;8.524;2024-03-02T00:54:19;99001.13;;;5.98;80.16
81354;BME280;70810;52.038;8.524;2024-03-02T00:56:50;99001.13;;;5.98;79.59
81354;BME280;70810;52.038;8.524;2024-03-02T00:59:18;98999.91;;;5.87;80.46
81354;BME280;70810;52.038;8.524;2024-03-02T01:01:45;98996.94;;;5.93;79.97
81354;BME280;70810;52.038;8.524;2024-03-02T01:04:12;98992.69;;;5.89;79.78
81354;BME280;70810;52.038;8.524;2024-03-02T01:06:42;98966.56;;;5.79;79.73
81354;BME280;70810;52.038;8.524;2024-03-02T01:09:09;98993.59;;;5.89;79.71
81354;BME280;70810;52.038;8.524;2024-03-02T01:11:38;98984.00;;;5.85;80.54
81354;BME280;70810;52.038;8.524;2024-03-02T01:14:06;98992.69;;;5.89;79.99
81354;BME280;70810;52.038;8.524;2024-03-02T01:16:48;98990.59;;;5.78;79.56
81354;BME280;70810;52.038;8.524;2024-03-02T01:19:15;99002.09;;;5.78;79.96
81354;BME280;70810;52.038;8.524;2024-03-02T01:21:44;99006.78;;;5.73;81.17
81354;BME280;70810;52.038;8.524;2024-03-02T01:24:11;98989.19;;;5.71;80.38
81354;BME280;70810;52.038;8.524;2024-03-02T01:26:38;99002.97;;;5.79;79.85
81354;BME280;70810;52.038;8.524;2024-03-02T01:29:05;98993.31;;;5.59;81.35
81354;BME280;70810;52.038;8.524;2024-03-02T01:31:32;98976.63;;;5.55;81.52
81354;BME280;70810;52.038;8.524;2024-03-02T01:34:01;98994.88;;;5.63;81.14
81354;BME280;70810;52.038;8.524;2024-03-02T01:36:28;98994.47;;;5.53;81.14
81354;BME280;70810;52.038;8.524;2024-03-02T01:38:55;98976.16;;;5.47;80.25
81354;BME280;70810;52.038;8.524;2024-03-02T01:41:21;98987.84;;;5.62;81.14
81354;BME280;70810;52.038;8.524;2024-03-02T01:43:48;98992.75;;;5.70;80.33
81354;BME280;70810;52.038;8.524;2024-03-02T01:46:18;98988.53;;;5.66;80.42
81354;BME280;70810;52.038;8.524;2024-03-02T01:48:46;98993.09;;;5.64;80.59
81354;BME280;70810;52.038;8.524;2024-03-02T01:51:14;98993.00;;;5.65;80.16
81354;BME280;70810;52.038;8.524;2024-03-02T01:53:42;98991.84;;;5.71;79.90
81354;BME280;70810;52.038;8.524;2024-03-02T01:56:09;98971.38;;;5.54;80.14
81354;BME280;70810;52.038;8.524;2024-03-02T01:58:36;98977.50;;;5.56;80.71
81354;BME280;70810;52.038;8.524;2024-03-02T02:01:04;98978.91;;;5.63;80.68
81354;BME280;70810;52.038;8.524;2024-03-02T02:03:30;98982.75;;;5.57;80.78
81354;BME280;70810;52.038;8.524;2024-03-02T02:05:57;98977.19;;;5.62;79.63
81354;BME280;70810;52.038;8.524;2024-03-02T02:08:25;98975.53;;;5.59;80.79
81354;BME280;70810;52.038;8.524;2024-03-02T02:10:56;98968.03;;;5.50;80.35
81354;BME280;70810;52.038;8.524;2024-03-02T02:13:22;98959.00;;;5.53;81.13
81354;BME280;70810;52.038;8.524;2024-03-02T02:15:49;98953.47;;;5.57;79.89
81354;BME280;70810;52.038;8.524;2024-03-02T02:18:19;98958.88;;;5.56;80.36
81354;BME280;70810;52.038;8.524;2024-03-02T02:20:47;98940.72;;;5.47;81.61
81354;BME280;70810;52.038;8.524;2024-03-02T02:23:16;98944.94;;;5.51;80.52
81354;BME280;70810;52.038;8.524;2024-03-02T02:25:43;98931.63;;;5.33;80.41
81354;BME280;70810;52.038;8.524;2024-03-02T02:28:10;98934.84;;;5.40;80.66
81354;BME280;70810;52.038;8.524;2024-03-02T02:30:37;98943.03;;;5.35;81.21
81354;BME280;70810;52.038;8.524;2024-03-02T02:33:04;98934.22;;;5.35;81.12
81354;BME280;70810;52.038;8.524;2024-03-02T02:35:32;98938.66;;;5.34;81.81
81354;BME280;70810;52.038;8.524;2024-03-02T02:38:00;98931.69;;;5.32;82.62
81354;BME280;70810;52.038;8.524;2024-03-02T02:40:36;98923.09;;;5.27;82.15
81354;BME280;70810;52.038;8.524;2024-03-02T02:43:08;98919.47;;;5.28;81.98
81354;BME280;70810;52.038;8.524;2024-03-02T02:45:36;98914.25;;;5.26;82.53
81354;BME280;70810;52.038;8.524;2024-03-02T02:48:06;98917.00;;;5.25;82.80
81354;BME280;70810;52.038;8.524;2024-03-02T02:50:32;98894.53;;;5.13;82.09
81354;BME280;70810;52.038;8.524;2024-03-02T02:53:00;98908.06;;;5.26;82.65
81354;BME280;70810;52.038;8.524;2024-03-02T02:55:27;98902.88;;;5.22;82.07
81354;BME280;70810;52.038;8.524;2024-03-02T02:57:59;98914.31;;;5.25;81.85
81354;BME280;70810;52.038;8.524;2024-03-02T03:00:26;98906.03;;;5.31;81.16
81354;BME280;70810;52.038;8.524;2024-03-02T03:02:54;98905.41;;;5.43;81.64
81354;BME280;70810;52.038;8.524;2024-03-02T03:05:21;98895.78;;;5.23;81.95
81354;BME280;70810;52.038;8.524;2024-03-02T03:07:49;98907.00;;;5.30;81.65
81354;BME280;70810;52.038;8.524;2024-03-02T03:10:16;98891.31;;;5.23;82.01
81354;BME280;70810;52.038;8.524;2024-03-02T03:12:49;98880.34;;;5.12;82.14
81354;BME280;70810;52.038;8.524;2024-03-02T03:15:18;98897.50;;;5.24;82.13
81354;BME280;70810;52.038;8.524;2024-03-02T03:17:46;98891.03;;;5.30;81.46
81354;BME280;70810;52.038;8.524;2024-03-02T03:20:15;98899.22;;;5.25;81.77
81354;BME280;70810;52.038;8.524;2024-03-02T03:22:41;98889.78;;;5.19;81.55
81354;BME280;70810;52.038;8.524;2024-03-02T03:25:08;98900.47;;;5.18;81.34
81354;BME280;70810;52.038;8.524;2024-03-02T03:27:35;98897.41;;;5.26;81.25
81354;BME280;70810;52.038;8.524;2024-03-02T03:30:04;98899.78;;;5.32;81.72
81354;BME280;70810;52.038;8.524;2024-03-02T03:32:35;98893.13;;;5.23;81.15
81354;BME280;70810;52.038;8.524;2024-03-02T03:35:02;98887.88;;;5.21;81.52
81354;BME280;70810;52.038;8.524;2024-03-02T03:37:30;98893.06;;;5.25;81.13
81354;BME280;70810;52.038;8.524;2024-03-02T03:39:58;98904.53;;;5.25;81.53
81354;BME280;70810;52.038;8.524;2024-03-02T03:42:25;98906.78;;;5.15;82.25
81354;BME280;70810;52.038;8.524;2024-03-02T03:44:56;98896.94;;;5.17;82.66
81354;BME280;70810;52.038;8.524;2024-03-02T03:47:22;98913.59;;;5.21;81.99
81354;BME280;70810;52.038;8.524;2024-03-02T03:49:52;98913.69;;;5.19;82.13
81354;BME280;70810;52.038;8.524;2024-03-02T03:52:19;98901.03;;;5.25;81.99
81354;BME280;70810;52.038;8.524;2024-03-02T03:54:48;98904.53;;;5.25;83.11
81354;BME280;70810;52.038;8.524;2024-03-02T03:57:16;98912.75;;;5.20;82.58
81354;BME280;70810;52.038;8.524;2024-03-02T03:59:44;98905.41;;;5.26;83.35
81354;BME280;70810;52.038;8.524;2024-03-02T04:02:11;98909.00;;;5.25;82.76
81354;BME280;70810;52.038;8.524;2024-03-02T04:04:38;98896.16;;;5.15;82.83
81354;BME280;70810;52.038;8.524;2024-03-02T04:07:12;98898.66;;;5.18;83.70
81354;BME280;70810;52.038;8.524;2024-03-02T04:09:39;98906.63;;;5.18;84.43
81354;BME280;70810;52.038;8.524;2024-03-02T04:12:08;98907.19;;;5.25;83.13
81354;BME280;70810;52.038;8.524;2024-03-02T04:14:35;98915.97;;;5.27;82.83
81354;BME280;70810;52.038;8.524;2024-03-02T04:17:04;98912.59;;;5.23;83.23
81354;BME280;70810;52.038;8.524;2024-03-02T04:19:31;98914.31;;;5.25;84.87
81354;BME280;70810;52.038;8.524;2024-03-02T04:21:58;98915.53;;;5.17;84.06
81354;BME280;70810;52.038;8.524;2024-03-02T04:24:28;98908.38;;;5.19;84.07
81354;BME280;70810;52.038;8.524;2024-03-02T04:26:56;98907.00;;;5.11;84.06
81354;BME280;70810;52.038;8.524;2024-03-02T04:29:23;98892.00;;;5.10;83.33
81354;BME280;70810;52.038;8.524;2024-03-02T04:31:50;98918.19;;;5.17;82.78
81354;BME280;70810;52.038;8.524;2024-03-02T04:34:17;98911.84;;;5.02;84.50
81354;BME280;70810;52.038;8.524;2024-03-02T04:36:43;98908.44;;;4.99;83.99
81354;BME280;70810;52.038;8.524;2024-03-02T04:39:12;98916.91;;;5.07;83.54
81354;BME280;70810;52.038;8.524;2024-03-02T04:41:40;98918.78;;;5.05;84.26
81354;BME280;70810;52.038;8.524;2024-03-02T04:44:10;98912.50;;;5.08;84.14
81354;BME280;70810;52.038;8.524;2024-03-02T04:46:39;98911.69;;;5.05;84.42
81354;BME280;70810;52.038;8.524;2024-03-02T04:49:07;98922.38;;;5.04;84.60
81354;BME280;70810;52.038;8.524;2024-03-02T04:51:34;98926.00;;;5.03;84.51
81354;BME280;70810;52.038;8.524;2024-03-02T04:54:01;98923.69;;;5.14;84.29
81354;BME280;70810;52.038;8.524;2024-03-02T04:56:28;98925.72;;;5.09;84.70
81354;BME280;70810;52.038;8.524;2024-03-02T04:59:13;98926.63;;;5.08;85.63
81354;BME280;70810;52.038;8.524;2024-03-02T05:01:39;98926.06;;;5.01;85.16
81354;BME280;70810;52.038;8.524;2024-03-02T05:04:07;98931.03;;;5.09;84.97
81354;BME280;70810;52.038;8.524;2024-03-02T05:06:34;98926.97;;;5.00;85.00
81354;BME280;70810;52.038;8.524;2024-03-02T05:09:02;98933.66;;;4.90;85.21
81354;BME280;70810;52.038;8.524;2024-03-02T05:11:29;98946.94;;;4.90;85.59
81354;BME280;70810;52.038;8.524;2024-03-02T05:14:27;98935.97;;;4.98;84.45
81354;BME280;70810;52.038;8.524;2024-03-02T05:16:54;98951.34;;;5.10;85.77
81354;BME280;70810;52.038;8.524;2024-03-02T05:19:23;98951.25;;;5.12;84.18
81354;BME280;70810;52.038;8.524;2024-03-02T05:21:51;98940.13;;;5.03;85.09
81354;BME280;70810;52.038;8.524;2024-03-02T05:24:21;98939.78;;;5.11;84.06
81354;BME280;70810;52.038;8.524;2024-03-02T05:26:49;98959.44;;;5.07;85.65
81354;BME280;70810;52.038;8.524;2024-03-02T05:29:16;98930.81;;;4.95;85.93
81354;BME280;70810;52.038;8.524;2024-03-02T05:31:45;98936.09;;;5.14;84.06
81354;BME280;70810;52.038;8.524;2024-03-02T05:34:14;98949.66;;;5.27;83.33
81354;BME280;70810;52.038;8.524;2024-03-02T05:36:41;98956.28;;;5.18;84.17
81354;BME280;70810;52.038;8.524;2024-03-02T05:39:09;98959.03;;;5.16;84.67
81354;BME280;70810;52.038;8.524;2024-03-02T05:41:37;98957.22;;;5.17;84.37
81354;BME280;70810;52.038;8.524;2024-03-02T05:44:05;98944.53;;;5.04;84.47
81354;BME280;70810;52.038;8.524;2024-03-02T05:46:32;98942.66;;;5.07;84.68
81354;BME280;70810;52.038;8.524;2024-03-02T05:49:04;98952.03;;;5.14;85.59
81354;BME280;70810;52.038;8.524;2024-03-02T05:51:36;98957.66;;;5.27;84.00
81354;BME280;70810;52.038;8.524;2024-03-02T05:54:03;98959.94;;;5.15;84.78
81354;BME280;70810;52.038;8.524;2024-03-02T05:56:30;98956.50;;;5.13;85.29
81354;BME280;70810;52.038;8.524;2024-03-02T05:58:58;98957.50;;;5.11;85.52
81354;BME280;70810;52.038;8.524;2024-03-02T06:01:37;98956.94;;;5.04;85.79
81354;BME280;70810;52.038;8.524;2024-03-02T06:04:05;98934.09;;;5.00;85.10
81354;BME280;70810;52.038;8.524;2024-03-02T06:06:32;98959.03;;;5.16;85.12
81354;BME280;70810;52.038;8.524;2024-03-02T06:09:02;98960.97;;;5.13;84.89
81354;BME280;70810;52.038;8.524;2024-03-02T06:11:33;98961.97;;;5.10;85.12
81354;BME280;70810;52.038;8.524;2024-03-02T06:14:03;98964.84;;;5.25;84.26
81354;BME280;70810;52.038;8.524;2024-03-02T06:16:32;98962.09;;;5.26;83.64
81354;BME280;70810;52.038;8.524;2024-03-02T06:18:59;98970.09;;;5.26;84.58
81354;BME280;70810;52.038;8.524;2024-03-02T06:21:33;98966.53;;;5.26;86.28
81354;BME280;70810;52.038;8.524;2024-03-02T06:24:00;98971.19;;;5.39;85.13
81354;BME280;70810;52.038;8.524;2024-03-02T06:26:28;98975.50;;;5.42;84.63
81354;BME280;70810;52.038;8.524;2024-03-02T06:28:56;98973.19;;;5.53;84.80
81354;BME280;70810;52.038;8.524;2024-03-02T06:31:23;98975.59;;;5.58;83.58
81354;BME280;70810;52.038;8.524;2024-03-02T06:33:50;98970.22;;;5.59;83.25
81354;BME280;70810;52.038;8.524;2024-03-02T06:39:21;98984.34;;;5.79;81.85
81354;BME280;70810;52.038;8.524;2024-03-02T06:41:49;98985.59;;;5.89;82.38
81354;BME280;70810;52.038;8.524;2024-03-02T06:44:18;98998.09;;;6.06;81.55
81354;BME280;70810;52.038;8.524;2024-03-02T06:46:46;98995.66;;;6.02;81.79
81354;BME280;70810;52.038;8.524;2024-03-02T06:49:13;99001.13;;;6.16;80.62
81354;BME280;70810;52.038;8.524;2024-03-02T06:51:40;98994.16;;;6.48;79.44
81354;BME280;70810;52.038;8.524;2024-03-02T06:54:07;99003.19;;;6.62;78.00
81354;BME280;70810;52.038;8.524;2024-03-02T06:56:35;99000.94;;;6.54;78.63
81354;BME280;70810;52.038;8.524;2024-03-02T06:59:04;99004.41;;;6.39;79.53
81354;BME280;70810;52.038;8.524;2024-03-02T07:01:31;99001.97;;;6.34;79.57
81354;BME280;70810;52.038;8.524;2024-03-02T07:03:57;99003.16;;;6.11;80.33
81354;BME280;70810;52.038;8.524;2024-03-02T07:06:24;99001.66;;;6.23;80.13
81354;BME280;70810;52.038;8.524;2024-03-02T07:08:56;99004.81;;;6.48;78.98
81354;BME280;70810;52.038;8.524;2024-03-02T07:11:24;98997.81;;;6.46;78.84
81354;BME280;70810;52.038;8.524;2024-03-02T07:13:55;99007.66;;;6.61;77.98
81354;BME280;70810;52.038;8.524;2024-03-02T07:16:22;99014.22;;;6.71;78.30
81354;BME280;70810;52.038;8.524;2024-03-02T07:18:55;99012.59;;;6.69;78.52
81354;BME280;70810;52.038;8.524;2024-03-02T07:21:23;99012.75;;;6.66;77.79
81354;BME280;70810;52.038;8.524;2024-03-02T07:23:51;99011.63;;;6.87;77.26
81354;BME280;70810;52.038;8.524;2024-03-02T07:26:18;99010.72;;;6.87;76.73
81354;BME280;70810;52.038;8.524;2024-03-02T07:28:48;99007.34;;;7.17;75.49
81354;BME280;70810;52.038;8.524;2024-03-02T07:31:17;98979.81;;;7.00;75.59
81354;BME280;70810;52.038;8.524;2024-03-02T07:33:54;99021.63;;;7.63;74.09
81354;BME280;70810;52.038;8.524;2024-03-02T07:36:29;98999.75;;;7.57;73.54
81354;BME280;70810;52.038;8.524;2024-03-02T07:38:57;99021.09;;;7.73;73.53
81354;BME280;70810;52.038;8.524;2024-03-02T07:41:25;99024.47;;;7.76;73.64
81354;BME280;70810;52.038;8.524;2024-03-02T07:43:53;99009.97;;;7.80;73.10
81354;BME280;70810;52.038;8.524;2024-03-02T07:46:23;99022.75;;;8.06;71.87
81354;BME280;70810;52.038;8.524;2024-03-02T07:48:54;99027.53;;;8.61;69.77
81354;BME280;70810;52.038;8.524;2024-03-02T07:51:21;99022.59;;;9.54;67.79
81354;BME280;70810;52.038;8.524;2024-03-02T07:53:49;99026.09;;;9.69;66.05
81354;BME280;70810;52.038;8.524;2024-03-02T07:56:19;99031.72;;;9.79;65.52
81354;BME280;70810;52.038;8.524;2024-03-02T07:58:48;99028.44;;;9.88;64.89
81354;BME280;70810;52.038;8.524;2024-03-02T08:07:43;99033.28;;;9.27;67.83
81354;BME280;70810;52.038;8.524;2024-03-02T08:10:31;99028.97;;;9.24;67.03
81354;BME280;70810;52.038;8.524;2024-03-02T08:13:12;99038.25;;;9.19;68.07
81354;BME280;70810;52.038;8.524;2024-03-02T08:15:40;99025.91;;;9.16;66.90
81354;BME280;70810;52.038;8.524;2024-03-02T08:18:07;99034.13;;;9.13;68.16
81354;BME280;70810;52.038;8.524;2024-03-02T08:20:41;99033.25;;;9.12;68.02
81354;BME280;70810;52.038;8.524;2024-03-02T08:23:17;99042.72;;;9.18;67.12
81354;BME280;70810;52.038;8.524;2024-03-02T08:25:44;99038.63;;;9.12;67.77
81354;BME280;70810;52.038;8.524;2024-03-02T08:28:11;99045.38;;;9.32;67.25
81354;BME280;70810;52.038;8.524;2024-03-02T08:30:38;99041.78;;;9.19;67.57
81354;BME280;70810;52.038;8.524;2024-03-02T08:33:05;99046.56;;;9.28;66.99
81354;BME280;70810;52.038;8.524;2024-03-02T08:35:32;99047.00;;;9.35;66.77
81354;BME280;70810;52.038;8.524;2024-03-02T08:38:01;99047.28;;;9.45;66.86
81354;BME280;70810;52.038;8.524;2024-03-02T08:40:32;99051.31;;;9.38;67.04
81354;BME280;70810;52.038;8.524;2024-03-02T08:42:59;99041.53;;;9.51;66.11
81354;BME280;70810;52.038;8.524;2024-03-02T08:45:27;99042.91;;;9.44;65.74
81354;BME280;70810;52.038;8.524;2024-03-02T08:47:54;99038.50;;;9.43;65.75
81354;BME280;70810;52.038;8.524;2024-03-02T08:50:31;99037.44;;;9.45;66.08
81354;BME280;70810;52.038;8.524;2024-03-02T08:53:45;99043.97;;;9.68;65.68
81354;BME280;70810;52.038;8.524;2024-03-02T08:56:31;99047.88;;;9.77;64.93
81354;BME280;70810;52.038;8.524;2024-03-02T08:58:58;99049.97;;;9.86;64.29
81354;BME280;70810;52.038;8.524;2024-03-02T09:01:25;99061.91;;;9.81;64.16
81354;BME280;70810;52.038;8.524;2024-03-02T09:03:52;99040.63;;;9.79;64.66
81354;BME280;70810;52.038;8.524;2024-03-02T09:06:19;99058.75;;;9.88;63.40
81354;BME280;70810;52.038;8.524;2024-03-02T09:08:48;99050.16;;;9.83;64.19
81354;BME280;70810;52.038;8.524;2024-03-02T09:11:17;99055.44;;;9.98;64.37
81354;BME280;70810;52.038;8.524;2024-03-02T09:13:45;99051.94;;;9.97;64.33
81354;BME280;70810;52.038;8.524;2024-03-02T09:16:12;99017.06;;;9.84;63.16
81354;BME280;70810;52.038;8.524;2024-03-02T09:18:48;99043.63;;;10.15;63.96
81354;BME280;70810;52.038;8.524;2024-03-02T09:21:15;99047.00;;;10.31;62.77
81354;BME280;70810;52.038;8.524;2024-03-02T09:23:45;99051.97;;;10.37;63.18
81354;BME280;70810;52.038;8.524;2024-03-02T09:26:13;99057.34;;;10.37;63.18
81354;BME280;70810;52.038;8.524;2024-03-02T09:28:42;99049.50;;;10.34;62.72
81354;BME280;70810;52.038;8.524;2024-03-02T09:31:12;99044.94;;;10.49;62.12
81354;BME280;70810;52.038;8.524;2024-03-02T09:33:40;99049.66;;;10.45;62.19
81354;BME280;70810;52.038;8.524;2024-03-02T09:36:16;99055.44;;;10.52;61.82
81354;BME280;70810;52.038;8.524;2024-03-02T09:38:44;99035.09;;;10.62;62.31
81354;BME280;70810;52.038;8.524;2024-03-02T09:41:10;99047.09;;;10.70;60.91
81354;BME280;70810;52.038;8.524;2024-03-02T09:43:38;99039.16;;;10.81;60.89
81354;BME280;70810;52.038;8.524;2024-03-02T09:46:05;99036.34;;;10.82;60.16
81354;BME280;70810;52.038;8.524;2024-03-02T09:48:33;99040.00;;;10.69;60.63
81354;BME280;70810;52.038;8.524;2024-03-02T09:51:00;99030.91;;;10.71;61.10
81354;BME280;70810;52.038;8.524;2024-03-02T09:53:31;99050.53;;;10.85;60.93
81354;BME280;70810;52.038;8.524;2024-03-02T09:55:59;99048.50;;;10.88;60.28
81354;BME280;70810;52.038;8.524;2024-03-02T09:58:29;99037.44;;;10.93;59.56
81354;BME280;70810;52.038;8.524;2024-03-02T10:01:25;99040.00;;;11.07;59.32
81354;BME280;70810;52.038;8.524;2024-03-02T10:04:12;99049.22;;;11.03;59.53
81354;BME280;70810;52.038;8.524;2024-03-02T10:06:40;99054.19;;;11.22;60.13
81354;BME280;70810;52.038;8.524;2024-03-02T10:09:08;99054.13;;;11.35;59.72
81354;BME280;70810;52.038;8.524;2024-03-02T10:11:35;99064.78;;;11.36;59.88
81354;BME280;70810;52.038;8.524;2024-03-02T10:14:09;99066.50;;;11.37;59.35
81354;BME280;70810;52.038;8.524;2024-03-02T10:17:17;99064.44;;;11.41;59.65
81354;BME280;70810;52.038;8.524;2024-03-02T10:20:21;99066.28;;;11.28;59.76
81354;BME280;70810;52.038;8.524;2024-03-02T10:22:50;99061.66;;;11.30;59.96
81354;BME280;70810;52.038;8.524;2024-03-02T10:25:32;99058.66;;;11.22;59.35
81354;BME280;70810;52.038;8.524;2024-03-02T10:28:00;99058.78;;;11.20;59.06
81354;BME280;70810;52.038;8.524;2024-03-02T10:30:36;99059.72;;;11.32;59.63
81354;BME280;70810;52.038;8.524;2024-03-02T10:33:11;99056.28;;;11.30;60.55
81354;BME280;70810;52.038;8.524;2024-03-02T10:35:51;99055.56;;;11.28;59.70
81354;BME280;70810;52.038;8.524;2024-03-02T10:39:01;99062.72;;;11.53;58.17
81354;BME280;70810;52.038;8.524;2024-03-02T10:42:06;99058.88;;;11.44;58.60
81354;BME280;70810;52.038;8.524;2024-03-02T10:44:33;99036.91;;;11.50;58.56
81354;BME280;70810;52.038;8.524;2024-03-02T10:47:04;99050.22;;;11.65;57.94
81354;BME280;70810;52.038;8.524;2024-03-02T10:49:35;99047.94;;;11.71;57.91
81354;BME280;70810;52.038;8.524;2024-03-02T10:52:07;99049.63;;;11.72;57.55
81354;BME280;70810;52.038;8.524;2024-03-02T10:54:38;99046.31;;;11.69;58.15
81354;BME280;70810;52.038;8.524;2024-03-02T10:57:09;99044.75;;;11.90;57.43
81354;BME280;70810;52.038;8.524;2024-03-02T10:59:51;99048.09;;;12.18;56.31
81354;BME280;70810;52.038;8.524;2024-03-02T11:02:21;99042.78;;;12.29;56.40
81354;BME280;70810;52.038;8.524;2024-03-02T11:04:49;99036.78;;;12.02;57.95
81354;BME280;70810;52.038;8.524;2024-03-02T11:07:20;99035.41;;;11.96;55.96
81354;BME280;70810;52.038;8.524;2024-03-02T11:09:53;99038.78;;;12.11;56.92
81354;BME280;70810;52.038;8.524;2024-03-02T11:12:23;99032.38;;;12.01;56.63
81354;BME280;70810;52.038;8.524;2024-03-02T11:14:52;99049.06;;;11.93;56.42
81354;BME280;70810;52.038;8.524;2024-03-02T11:17:19;99028.31;;;11.95;56.43
81354;BME280;70810;52.038;8.524;2024-03-02T11:19:47;99039.63;;;12.11;56.47
81354;BME280;70810;52.038;8.524;2024-03-02T11:22:14;99037.63;;;12.26;56.62
81354;BME280;70810;52.038;8.524;2024-03-02T11:24:49;99027.97;;;12.00;55.72
81354;BME280;70810;52.038;8.524;2024-03-02T11:28:02;99042.69;;;12.07;56.22
81354;BME280;70810;52.038;8.524;2024-03-02T11:30:51;99041.25;;;12.14;57.20
81354;BME280;70810;52.038;8.524;2024-03-02T11:33:25;99041.53;;;12.34;55.51
81354;BME280;70810;52.038;8.524;2024-03-02T11:35:56;99033.25;;;12.37;55.69
81354;BME280;70810;52.038;8.524;2024-03-02T11:38:23;99048.81;;;12.44;55.31
81354;BME280;70810;52.038;8.524;2024-03-02T11:40:53;99044.09;;;12.59;55.22
81354;BME280;70810;52.038;8.524;2024-03-02T11:43:22;99045.34;;;12.78;55.47
81354;BME280;70810;52.038;8.524;2024-03-02T11:46:00;99043.16;;;12.72;55.11
81354;BME280;70810;52.038;8.524;2024-03-02T11:48:39;99053.72;;;12.50;55.61
81354;BME280;70810;52.038;8.524;2024-03-02T11:51:12;99032.06;;;12.41;55.86
81354;BME280;70810;52.038;8.524;2024-03-02T11:53:47;99052.13;;;12.48;55.86
81354;BME280;70810;52.038;8.524;2024-03-02T11:56:17;99048.09;;;12.54;55.29
81354;BME280;70810;52.038;8.524;2024-03-02T11:58:45;99043.94;;;12.49;55.41
81354;BME280;70810;52.038;8.524;2024-03-02T12:01:13;99033.19;;;12.49;55.56
81354;BME280;70810;52.038;8.524;2024-03-02T12:03:40;99039.13;;;12.88;54.98
81354;BME280;70810;52.038;8.524;2024-03-02T12:06:08;99035.44;;;12.78;55.09
81354;BME280;70810;52.038;8.524;2024-03-02T12:08:37;99037.16;;;12.79;55.28
81354;BME280;70810;52.038;8.524;2024-03-02T12:11:07;99034.94;;;12.84;54.16
81354;BME280;70810;52.038;8.524;2024-03-02T12:13:35;99039.13;;;12.77;54.74
81354;BME280;70810;52.038;8.524;2024-03-02T12:16:02;99027.13;;;12.70;54.65
81354;BME280;70810;52.038;8.524;2024-03-02T12:18:29;99029.41;;;12.63;55.17
81354;BME280;70810;52.038;8.524;2024-03-02T12:20:56;99024.28;;;12.60;55.31
81354;BME280;70810;52.038;8.524;2024-03-02T12:23:24;99021.84;;;12.68;55.66
81354;BME280;70810;52.038;8.524;2024-03-02T12:25:51;99026.41;;;12.91;55.27
81354;BME280;70810;52.038;8.524;2024-03-02T12:28:33;99018.94;;;12.72;55.66
81354;BME280;70810;52.038;8.524;2024-03-02T12:31:06;99016.47;;;12.68;55.80
81354;BME280;70810;52.038;8.524;2024-03-02T12:33:33;99012.31;;;12.76;56.25
81354;BME280;70810;52.038;8.524;2024-03-02T12:36:00;99020.63;;;12.73;55.03
81354;BME280;70810;52.038;8.524;2024-03-02T12:41:18;99014.53;;;12.93;54.28
81354;BME280;70810;52.038;8.524;2024-03-02T12:43:45;99013.06;;;13.12;53.64
81354;BME280;70810;52.038;8.524;2024-03-02T12:46:14;99003.19;;;13.35;53.80
81354;BME280;70810;52.038;8.524;2024-03-02T12:48:48;99011.03;;;13.38;53.66
81354;BME280;70810;52.038;8.524;2024-03-02T12:51:22;99005.72;;;13.59;53.47
81354;BME280;70810;52.038;8.524;2024-03-02T12:53:53;98997.94;;;13.33;53.54
81354;BME280;70810;52.038;8.524;2024-03-02T12:56:20;99005.66;;;13.38;53.90
81354;BME280;70810;52.038;8.524;2024-03-02T12:58:52;98990.09;;;13.53;52.29
81354;BME280;70810;52.038;8.524;2024-03-02T13:01:20;98984.28;;;13.69;52.51
81354;BME280;70810;52.038;8.524;2024-03-02T13:03:48;98992.06;;;13.83;52.41
81354;BME280;70810;52.038;8.524;2024-03-02T13:06:17;98980.31;;;13.84;51.76
81354;BME280;70810;52.038;8.524;2024-03-02T13:08:45;98991.53;;;13.57;52.56
81354;BME280;70810;52.038;8.524;2024-03-02T13:11:15;98996.16;;;13.66;53.28
81354;BME280;70810;52.038;8.524;2024-03-02T13:13:46;98989.06;;;13.54;53.61
81354;BME280;70810;52.038;8.524;2024-03-02T13:16:18;98988.47;;;13.50;52.30
81354;BME280;70810;52.038;8.524;2024-03-02T13:19:06;98989.97;;;13.43;51.42
81354;BME280;70810;52.038;8.524;2024-03-02T13:21:36;98984.03;;;13.60;52.70
81354;BME280;70810;52.038;8.524;2024-03-02T13:24:05;98982.69;;;13.66;51.45
81354;BME280;70810;52.038;8.524;2024-03-02T13:26:32;98985.25;;;13.68;51.42
81354;BME280;70810;52.038;8.524;2024-03-02T13:28:59;98975.00;;;13.50;52.00
81354;BME280;70810;52.038;8.524;2024-03-02T13:31:26;98976.03;;;13.38;52.25
81354;BME280;70810;52.038;8.524;2024-03-02T13:33:52;98973.44;;;13.36;52.33
81354;BME280;70810;52.038;8.524;2024-03-02T13:36:21;98969.63;;;13.16;52.69